sensor_id;sensor_type;location;lat;lon;timestamp;temperature;humidity
55091;DHT22;40985;53.180;5.800;2023-02-02T00:01:52;5.20;99.90
55091;DHT22;40985;53.180;5.800;2023-02-02T00:04:29;5.40;99.90
55091;DHT22;40985;53.180;5.800;2023-02-02T00:06:55;5.40;99.90
55091;DHT22;40985;53.180;5.800;2023-02-02T00:09:28;5.40;99.90
55091;DHT22;40985;53.180;5.800;2023-02-02T00:11:55;5.40;99.90
55091;DHT22;40985;53.180;5.800;2023-02-02T00:14:21;5.50;99.90
55091;DHT22;40985;53.180;5.800;2023-02-02T00:16:48;5.50;99.90
55091;DHT22;40985;53.180;5.800;2023-02-02T00:19:16;5.60;99.90
55091;DHT22;40985;53.180;5.800;2023-02-02T00:21:43;5.60;99.90
55091;DHT22;40985;53.180;5.800;2023-02-02T00:24:12;5.50;99.90
55091;DHT22;40985;53.180;5.800;2023-02-02T00:26:39;5.50;99.90
55091;DHT22;40985;53.180;5.800;2023-02-02T00:29:06;5.50;99.90
55091;DHT22;40985;53.180;5.800;2023-02-02T00:31:33;5.50;99.90
55091;DHT22;40985;53.180;5.800;2023-02-02T00:33:58;5.50;99.90
55091;DHT22;40985;53.180;5.800;2023-02-02T00:36:25;5.50;99.90
55091;DHT22;40985;53.180;5.800;2023-02-02T00:38:51;5.50;99.90
55091;DHT22;40985;53.180;5.800;2023-02-02T00:41:18;5.50;99.90
55091;DHT22;40985;53.180;5.800;2023-02-02T00:43:44;5.50;99.90
55091;DHT22;40985;53.180;5.800;2023-02-02T00:46:17;5.40;99.90
55091;DHT22;40985;53.180;5.800;2023-02-02T00:48:43;5.40;99.90
55091;DHT22;40985;53.180;5.800;2023-02-02T00:51:08;5.40;99.90
55091;DHT22;40985;53.180;5.800;2023-02-02T00:53:34;5.30;99.90
55091;DHT22;40985;53.180;5.800;2023-02-02T00:56:00;5.30;99.90
55091;DHT22;40985;53.180;5.800;2023-02-02T00:58:25;5.40;99.90
55091;DHT22;40985;53.180;5.800;2023-02-02T01:00:51;5.30;99.90
55091;DHT22;40985;53.180;5.800;2023-02-02T01:03:17;5.30;99.90
55091;DHT22;40985;53.180;5.800;2023-02-02T01:05:42;5.40;99.90
55091;DHT22;40985;53.180;5.800;2023-02-02T01:08:09;5.40;99.90
55091;DHT22;40985;53.180;5.800;2023-02-02T01:10:35;5.50;99.90
55091;DHT22;40985;53.180;5.800;2023-02-02T01:13:01;5.50;99.90
55091;DHT22;40985;53.180;5.800;2023-02-02T01:15:27;5.50;99.90
55091;DHT22;40985;53.180;5.800;2023-02-02T01:17:55;5.50;99.90
55091;DHT22;40985;53.180;5.800;2023-02-02T01:20:21;5.60;99.90
55091;DHT22;40985;53.180;5.800;2023-02-02T01:22:47;5.60;99.90
55091;DHT22;40985;53.180;5.800;2023-02-02T01:25:13;5.60;99.90
55091;DHT22;40985;53.180;5.800;2023-02-02T01:27:38;5.70;99.90
55091;DHT22;40985;53.180;5.800;2023-02-02T01:30:05;5.70;99.90
55091;DHT22;40985;53.180;5.800;2023-02-02T01:32:31;5.70;99.90
55091;DHT22;40985;53.180;5.800;2023-02-02T01:34:57;5.70;99.90
55091;DHT22;40985;53.180;5.800;2023-02-02T01:37:23;5.80;99.90
55091;DHT22;40985;53.180;5.800;2023-02-02T01:39:48;5.70;99.90
55091;DHT22;40985;53.180;5.800;2023-02-02T01:42:19;5.80;99.90
55091;DHT22;40985;53.180;5.800;2023-02-02T01:47:29;5.80;99.90
55091;DHT22;40985;53.180;5.800;2023-02-02T01:49:55;5.80;99.90
55091;DHT22;40985;53.180;5.800;2023-02-02T01:52:24;6.00;99.90
55091;DHT22;40985;53.180;5.800;2023-02-02T01:54:54;5.90;99.90
55091;DHT22;40985;53.180;5.800;2023-02-02T01:57:33;5.90;99.90
55091;DHT22;40985;53.180;5.800;2023-02-02T02:00:03;6.00;99.90
55091;DHT22;40985;53.180;5.800;2023-02-02T02:02:30;5.90;99.90
55091;DHT22;40985;53.180;5.800;2023-02-02T02:04:56;6.00;99.90
55091;DHT22;40985;53.180;5.800;2023-02-02T02:07:23;5.90;99.90
55091;DHT22;40985;53.180;5.800;2023-02-02T02:09:49;6.00;99.90
55091;DHT22;40985;53.180;5.800;2023-02-02T02:12:15;5.90;99.90
55091;DHT22;40985;53.180;5.800;2023-02-02T02:14:44;5.90;99.90
55091;DHT22;40985;53.180;5.800;2023-02-02T02:20:28;6.10;99.90
55091;DHT22;40985;53.180;5.800;2023-02-02T02:37:53;6.00;99.90
55091;DHT22;40985;53.180;5.800;2023-02-02T02:42:54;6.10;99.90
55091;DHT22;40985;53.180;5.800;2023-02-02T02:45:21;6.00;99.90
55091;DHT22;40985;53.180;5.800;2023-02-02T02:47:49;6.00;99.90
55091;DHT22;40985;53.180;5.800;2023-02-02T02:50:15;6.00;99.90
55091;DHT22;40985;53.180;5.800;2023-02-02T02:52:41;5.90;99.90
55091;DHT22;40985;53.180;5.800;2023-02-02T02:55:09;6.00;99.90
55091;DHT22;40985;53.180;5.800;2023-02-02T03:06:14;6.20;99.90
55091;DHT22;40985;53.180;5.800;2023-02-02T03:08:57;6.10;99.90
55091;DHT22;40985;53.180;5.800;2023-02-02T03:11:22;5.80;99.90
55091;DHT22;40985;53.180;5.800;2023-02-02T03:13:48;5.90;99.90
55091;DHT22;40985;53.180;5.800;2023-02-02T03:16:15;5.80;99.90
55091;DHT22;40985;53.180;5.800;2023-02-02T03:18:41;5.70;99.90
55091;DHT22;40985;53.180;5.800;2023-02-02T03:21:07;5.80;99.90
55091;DHT22;40985;53.180;5.800;2023-02-02T03:23:33;5.70;99.90
55091;DHT22;40985;53.180;5.800;2023-02-02T03:25:59;5.60;99.90
55091;DHT22;40985;53.180;5.800;2023-02-02T03:28:27;5.70;99.90
55091;DHT22;40985;53.180;5.800;2023-02-02T03:30:54;5.70;99.90
55091;DHT22;40985;53.180;5.800;2023-02-02T03:33:20;5.60;99.90
55091;DHT22;40985;53.180;5.800;2023-02-02T03:35:46;5.60;99.90
55091;DHT22;40985;53.180;5.800;2023-02-02T03:38:12;5.70;99.90
55091;DHT22;40985;53.180;5.800;2023-02-02T03:40:38;5.50;99.90
55091;DHT22;40985;53.180;5.800;2023-02-02T03:43:04;5.40;99.90
55091;DHT22;40985;53.180;5.800;2023-02-02T03:45:30;5.50;99.90
55091;DHT22;40985;53.180;5.800;2023-02-02T03:47:56;5.30;99.90
55091;DHT22;40985;53.180;5.800;2023-02-02T03:50:22;5.40;99.90
55091;DHT22;40985;53.180;5.800;2023-02-02T03:52:49;5.40;99.90
55091;DHT22;40985;53.180;5.800;2023-02-02T03:55:15;5.40;99.90
55091;DHT22;40985;53.180;5.800;2023-02-02T03:57:41;5.20;99.90
55091;DHT22;40985;53.180;5.800;2023-02-02T04:00:07;5.30;99.90
55091;DHT22;40985;53.180;5.800;2023-02-02T04:02:33;5.20;99.90
55091;DHT22;40985;53.180;5.800;2023-02-02T04:04:59;5.20;99.90
55091;DHT22;40985;53.180;5.800;2023-02-02T04:07:24;5.20;99.90
55091;DHT22;40985;53.180;5.800;2023-02-02T04:09:50;5.10;99.90
55091;DHT22;40985;53.180;5.800;2023-02-02T04:12:15;5.30;99.90
55091;DHT22;40985;53.180;5.800;2023-02-02T04:14:41;5.10;99.90
55091;DHT22;40985;53.180;5.800;2023-02-02T04:17:07;5.20;99.90
55091;DHT22;40985;53.180;5.800;2023-02-02T04:19:32;5.00;99.90
55091;DHT22;40985;53.180;5.800;2023-02-02T04:21:58;5.10;99.90
55091;DHT22;40985;53.180;5.800;2023-02-02T04:24:24;4.90;99.90
55091;DHT22;40985;53.180;5.800;2023-02-02T04:26:49;5.00;99.90
55091;DHT22;40985;53.180;5.800;2023-02-02T04:29:15;4.90;99.90
55091;DHT22;40985;53.180;5.800;2023-02-02T04:31:41;5.00;99.90
55091;DHT22;40985;53.180;5.800;2023-02-02T04:34:06;4.90;99.90
55091;DHT22;40985;53.180;5.800;2023-02-02T04:36:32;4.90;99.90
55091;DHT22;40985;53.180;5.800;2023-02-02T04:38:57;4.90;99.90
55091;DHT22;40985;53.180;5.800;2023-02-02T04:41:23;4.90;99.90
55091;DHT22;40985;53.180;5.800;2023-02-02T04:43:49;5.00;99.90
55091;DHT22;40985;53.180;5.800;2023-02-02T04:46:15;4.70;99.90
55091;DHT22;40985;53.180;5.800;2023-02-02T04:48:42;5.00;99.90
55091;DHT22;40985;53.180;5.800;2023-02-02T04:51:12;4.80;99.90
55091;DHT22;40985;53.180;5.800;2023-02-02T04:53:39;4.70;99.90
55091;DHT22;40985;53.180;5.800;2023-02-02T04:56:16;4.80;99.90
55091;DHT22;40985;53.180;5.800;2023-02-02T04:58:43;4.70;99.90
55091;DHT22;40985;53.180;5.800;2023-02-02T05:01:16;4.90;99.90
55091;DHT22;40985;53.180;5.800;2023-02-02T05:03:42;4.80;99.90
55091;DHT22;40985;53.180;5.800;2023-02-02T05:06:08;5.00;99.90
55091;DHT22;40985;53.180;5.800;2023-02-02T05:08:35;5.00;99.90
55091;DHT22;40985;53.180;5.800;2023-02-02T05:11:09;5.10;99.90
55091;DHT22;40985;53.180;5.800;2023-02-02T05:13:35;4.90;99.90
55091;DHT22;40985;53.180;5.800;2023-02-02T05:16:01;4.80;99.90
55091;DHT22;40985;53.180;5.800;2023-02-02T05:18:27;4.90;99.90
55091;DHT22;40985;53.180;5.800;2023-02-02T05:20:53;5.10;99.90
55091;DHT22;40985;53.180;5.800;2023-02-02T05:23:20;5.10;99.90
55091;DHT22;40985;53.180;5.800;2023-02-02T05:25:54;5.00;99.90
55091;DHT22;40985;53.180;5.800;2023-02-02T05:28:20;4.80;99.90
55091;DHT22;40985;53.180;5.800;2023-02-02T05:30:46;4.80;99.90
55091;DHT22;40985;53.180;5.800;2023-02-02T05:33:12;5.00;99.90
55091;DHT22;40985;53.180;5.800;2023-02-02T05:35:38;4.80;99.90
55091;DHT22;40985;53.180;5.800;2023-02-02T05:38:04;4.80;99.90
55091;DHT22;40985;53.180;5.800;2023-02-02T05:40:30;5.10;99.90
55091;DHT22;40985;53.180;5.800;2023-02-02T05:42:55;4.80;99.90
55091;DHT22;40985;53.180;5.800;2023-02-02T05:45:21;5.00;99.90
55091;DHT22;40985;53.180;5.800;2023-02-02T05:47:47;4.90;99.90
55091;DHT22;40985;53.180;5.800;2023-02-02T05:50:13;5.00;99.90
55091;DHT22;40985;53.180;5.800;2023-02-02T05:52:40;4.90;99.90
55091;DHT22;40985;53.180;5.800;2023-02-02T05:55:08;4.80;99.90
55091;DHT22;40985;53.180;5.800;2023-02-02T05:57:34;4.90;99.90
55091;DHT22;40985;53.180;5.800;2023-02-02T06:00:00;5.20;99.90
55091;DHT22;40985;53.180;5.800;2023-02-02T06:02:26;5.00;99.90
55091;DHT22;40985;53.180;5.800;2023-02-02T06:04:51;5.00;99.90
55091;DHT22;40985;53.180;5.800;2023-02-02T06:07:17;5.10;99.90
55091;DHT22;40985;53.180;5.800;2023-02-02T06:09:43;5.00;99.90
55091;DHT22;40985;53.180;5.800;2023-02-02T06:12:08;4.90;99.90
55091;DHT22;40985;53.180;5.800;2023-02-02T06:14:34;5.20;99.90
55091;DHT22;40985;53.180;5.800;2023-02-02T06:17:00;4.90;99.90
55091;DHT22;40985;53.180;5.800;2023-02-02T06:19:25;4.90;99.90
55091;DHT22;40985;53.180;5.800;2023-02-02T06:21:51;5.20;99.90
55091;DHT22;40985;53.180;5.800;2023-02-02T06:24:17;4.90;99.90
55091;DHT22;40985;53.180;5.800;2023-02-02T06:26:42;5.10;99.90
55091;DHT22;40985;53.180;5.800;2023-02-02T06:29:11;4.90;99.90
55091;DHT22;40985;53.180;5.800;2023-02-02T06:31:37;4.90;99.90
55091;DHT22;40985;53.180;5.800;2023-02-02T06:34:03;4.90;99.90
55091;DHT22;40985;53.180;5.800;2023-02-02T06:36:28;5.10;99.90
55091;DHT22;40985;53.180;5.800;2023-02-02T06:38:55;4.90;99.90
55091;DHT22;40985;53.180;5.800;2023-02-02T06:41:22;5.10;99.90
55091;DHT22;40985;53.180;5.800;2023-02-02T06:43:48;5.00;99.90
55091;DHT22;40985;53.180;5.800;2023-02-02T06:46:15;4.90;99.90
55091;DHT22;40985;53.180;5.800;2023-02-02T06:48:40;5.10;99.90
55091;DHT22;40985;53.180;5.800;2023-02-02T06:51:06;4.90;99.90
55091;DHT22;40985;53.180;5.800;2023-02-02T06:53:33;5.10;99.90
55091;DHT22;40985;53.180;5.800;2023-02-02T06:56:02;4.90;99.90
55091;DHT22;40985;53.180;5.800;2023-02-02T06:58:29;5.10;99.90
55091;DHT22;40985;53.180;5.800;2023-02-02T07:01:04;5.20;99.90
55091;DHT22;40985;53.180;5.800;2023-02-02T07:03:30;5.00;99.90
55091;DHT22;40985;53.180;5.800;2023-02-02T07:05:56;5.20;99.90
55091;DHT22;40985;53.180;5.800;2023-02-02T07:08:21;5.00;99.90
55091;DHT22;40985;53.180;5.800;2023-02-02T07:10:47;5.00;99.90
55091;DHT22;40985;53.180;5.800;2023-02-02T07:13:13;4.90;99.90
55091;DHT22;40985;53.180;5.800;2023-02-02T07:15:39;5.30;99.90
55091;DHT22;40985;53.180;5.800;2023-02-02T07:18:05;5.20;99.90
55091;DHT22;40985;53.180;5.800;2023-02-02T07:20:31;5.10;99.90
55091;DHT22;40985;53.180;5.800;2023-02-02T07:22:57;5.10;99.90
55091;DHT22;40985;53.180;5.800;2023-02-02T07:25:23;5.00;99.90
55091;DHT22;40985;53.180;5.800;2023-02-02T07:27:52;5.10;99.90
55091;DHT22;40985;53.180;5.800;2023-02-02T07:30:19;5.10;99.90
55091;DHT22;40985;53.180;5.800;2023-02-02T07:32:48;5.00;99.90
55091;DHT22;40985;53.180;5.800;2023-02-02T07:35:15;4.90;99.90
55091;DHT22;40985;53.180;5.800;2023-02-02T07:37:41;5.10;99.90
55091;DHT22;40985;53.180;5.800;2023-02-02T07:40:08;5.20;99.90
55091;DHT22;40985;53.180;5.800;2023-02-02T07:42:33;5.00;99.90
55091;DHT22;40985;53.180;5.800;2023-02-02T07:44:59;5.00;99.90
55091;DHT22;40985;53.180;5.800;2023-02-02T07:47:25;5.20;99.90
55091;DHT22;40985;53.180;5.800;2023-02-02T07:49:51;5.00;99.90
55091;DHT22;40985;53.180;5.800;2023-02-02T07:52:17;5.10;99.90
55091;DHT22;40985;53.180;5.800;2023-02-02T07:54:42;5.10;99.90
55091;DHT22;40985;53.180;5.800;2023-02-02T07:57:08;5.00;99.90
55091;DHT22;40985;53.180;5.800;2023-02-02T07:59:34;5.30;99.90
55091;DHT22;40985;53.180;5.800;2023-02-02T08:01:59;5.20;99.90
55091;DHT22;40985;53.180;5.800;2023-02-02T08:04:25;5.30;99.90
55091;DHT22;40985;53.180;5.800;2023-02-02T08:06:51;5.10;99.90
55091;DHT22;40985;53.180;5.800;2023-02-02T08:09:17;5.00;99.90
55091;DHT22;40985;53.180;5.800;2023-02-02T08:11:42;5.30;99.90
55091;DHT22;40985;53.180;5.800;2023-02-02T08:14:11;5.30;99.90
55091;DHT22;40985;53.180;5.800;2023-02-02T08:16:37;5.00;99.90
55091;DHT22;40985;53.180;5.800;2023-02-02T08:19:03;5.00;99.90
55091;DHT22;40985;53.180;5.800;2023-02-02T08:21:32;5.30;99.90
55091;DHT22;40985;53.180;5.800;2023-02-02T08:23:58;5.20;99.90
55091;DHT22;40985;53.180;5.800;2023-02-02T08:26:28;5.20;99.90
55091;DHT22;40985;53.180;5.800;2023-02-02T08:28:56;5.30;99.90
55091;DHT22;40985;53.180;5.800;2023-02-02T08:31:34;5.30;99.90
55091;DHT22;40985;53.180;5.800;2023-02-02T08:34:00;5.30;99.90
55091;DHT22;40985;53.180;5.800;2023-02-02T08:36:27;5.40;99.90
55091;DHT22;40985;53.180;5.800;2023-02-02T08:38:53;5.20;99.90
55091;DHT22;40985;53.180;5.800;2023-02-02T08:41:21;5.30;99.90
55091;DHT22;40985;53.180;5.800;2023-02-02T08:43:47;5.50;99.90
55091;DHT22;40985;53.180;5.800;2023-02-02T08:46:15;5.50;99.90
55091;DHT22;40985;53.180;5.800;2023-02-02T08:48:41;5.50;99.90
55091;DHT22;40985;53.180;5.800;2023-02-02T08:51:09;5.50;99.90
55091;DHT22;40985;53.180;5.800;2023-02-02T08:53:36;5.40;99.90
55091;DHT22;40985;53.180;5.800;2023-02-02T08:56:09;5.30;99.90
55091;DHT22;40985;53.180;5.800;2023-02-02T08:58:35;5.30;99.90
55091;DHT22;40985;53.180;5.800;2023-02-02T09:01:09;5.60;99.90
55091;DHT22;40985;53.180;5.800;2023-02-02T09:03:36;5.30;99.90
55091;DHT22;40985;53.180;5.800;2023-02-02T09:06:06;5.50;99.90
55091;DHT22;40985;53.180;5.800;2023-02-02T09:08:32;5.60;99.90
55091;DHT22;40985;53.180;5.800;2023-02-02T09:11:12;5.70;99.90
55091;DHT22;40985;53.180;5.800;2023-02-02T09:13:39;5.70;99.90
55091;DHT22;40985;53.180;5.800;2023-02-02T09:16:07;5.60;99.90
55091;DHT22;40985;53.180;5.800;2023-02-02T09:18:33;5.50;99.90
55091;DHT22;40985;53.180;5.800;2023-02-02T09:21:00;5.70;99.90
55091;DHT22;40985;53.180;5.800;2023-02-02T09:23:29;5.90;99.90
55091;DHT22;40985;53.180;5.800;2023-02-02T09:25:55;5.90;99.90
55091;DHT22;40985;53.180;5.800;2023-02-02T09:28:20;5.90;99.90
55091;DHT22;40985;53.180;5.800;2023-02-02T09:30:46;5.80;99.90
55091;DHT22;40985;53.180;5.800;2023-02-02T09:33:11;5.90;99.90
55091;DHT22;40985;53.180;5.800;2023-02-02T09:35:37;6.00;99.90
55091;DHT22;40985;53.180;5.800;2023-02-02T09:38:03;5.80;99.90
55091;DHT22;40985;53.180;5.800;2023-02-02T09:40:31;5.70;99.90
55091;DHT22;40985;53.180;5.800;2023-02-02T09:46:12;6.10;99.90
55091;DHT22;40985;53.180;5.800;2023-02-02T09:48:52;5.80;99.90
55091;DHT22;40985;53.180;5.800;2023-02-02T09:51:25;5.80;99.90
55091;DHT22;40985;53.180;5.800;2023-02-02T09:54:03;5.90;99.90
55091;DHT22;40985;53.180;5.800;2023-02-02T09:56:39;5.90;99.90
55091;DHT22;40985;53.180;5.800;2023-02-02T09:59:15;6.10;99.90
55091;DHT22;40985;53.180;5.800;2023-02-02T10:01:43;5.80;99.90
55091;DHT22;40985;53.180;5.800;2023-02-02T10:04:18;6.10;99.90
55091;DHT22;40985;53.180;5.800;2023-02-02T10:06:53;5.80;99.90
55091;DHT22;40985;53.180;5.800;2023-02-02T10:09:38;5.80;99.90
55091;DHT22;40985;53.180;5.800;2023-02-02T10:20:43;5.90;99.90
55091;DHT22;40985;53.180;5.800;2023-02-02T10:23:28;5.80;99.90
55091;DHT22;40985;53.180;5.800;2023-02-02T10:28:31;6.00;99.90
55091;DHT22;40985;53.180;5.800;2023-02-02T10:31:01;5.90;99.90
55091;DHT22;40985;53.180;5.800;2023-02-02T10:33:38;5.90;99.90
55091;DHT22;40985;53.180;5.800;2023-02-02T10:41:13;6.00;99.90
55091;DHT22;40985;53.180;5.800;2023-02-02T10:44:03;6.30;99.90
55091;DHT22;40985;53.180;5.800;2023-02-02T10:46:33;6.00;99.90
55091;DHT22;40985;53.180;5.800;2023-02-02T10:52:16;6.20;99.90
55091;DHT22;40985;53.180;5.800;2023-02-02T10:54:52;6.20;99.90
55091;DHT22;40985;53.180;5.800;2023-02-02T10:57:35;6.00;99.90
55091;DHT22;40985;53.180;5.800;2023-02-02T11:00:09;6.30;99.90
55091;DHT22;40985;53.180;5.800;2023-02-02T11:02:39;6.10;99.90
55091;DHT22;40985;53.180;5.800;2023-02-02T11:05:09;6.30;99.90
55091;DHT22;40985;53.180;5.800;2023-02-02T11:07:55;6.10;99.90
55091;DHT22;40985;53.180;5.800;2023-02-02T11:10:21;6.40;99.90
55091;DHT22;40985;53.180;5.800;2023-02-02T11:12:47;6.40;99.90
55091;DHT22;40985;53.180;5.800;2023-02-02T11:15:27;6.10;99.90
55091;DHT22;40985;53.180;5.800;2023-02-02T11:17:53;6.10;99.90
55091;DHT22;40985;53.180;5.800;2023-02-02T11:20:37;6.20;99.90
55091;DHT22;40985;53.180;5.800;2023-02-02T11:23:04;6.20;99.90
55091;DHT22;40985;53.180;5.800;2023-02-02T11:25:38;6.20;99.90
55091;DHT22;40985;53.180;5.800;2023-02-02T11:28:31;6.10;99.90
55091;DHT22;40985;53.180;5.800;2023-02-02T11:30:58;6.30;99.90
55091;DHT22;40985;53.180;5.800;2023-02-02T11:35:58;6.10;99.90
55091;DHT22;40985;53.180;5.800;2023-02-02T11:38:25;6.50;99.90
55091;DHT22;40985;53.180;5.800;2023-02-02T11:41:06;6.40;99.90
55091;DHT22;40985;53.180;5.800;2023-02-02T11:46:21;6.40;99.90
55091;DHT22;40985;53.180;5.800;2023-02-02T11:48:59;6.50;99.90
55091;DHT22;40985;53.180;5.800;2023-02-02T11:51:27;6.50;99.90
55091;DHT22;40985;53.180;5.800;2023-02-02T11:56:38;6.10;99.90
55091;DHT22;40985;53.180;5.800;2023-02-02T11:59:04;6.40;99.90
55091;DHT22;40985;53.180;5.800;2023-02-02T12:01:32;6.50;99.90
55091;DHT22;40985;53.180;5.800;2023-02-02T12:04:36;6.20;99.90
55091;DHT22;40985;53.180;5.800;2023-02-02T12:06:54;6.50;99.90
55091;DHT22;40985;53.180;5.800;2023-02-02T12:09:23;6.40;99.90
55091;DHT22;40985;53.180;5.800;2023-02-02T12:12:05;6.40;99.90
55091;DHT22;40985;53.180;5.800;2023-02-02T12:23:09;6.60;99.90
55091;DHT22;40985;53.180;5.800;2023-02-02T12:25:56;6.40;99.90
55091;DHT22;40985;53.180;5.800;2023-02-02T12:28:53;6.50;99.90
55091;DHT22;40985;53.180;5.800;2023-02-02T12:31:43;6.50;99.90
55091;DHT22;40985;53.180;5.800;2023-02-02T12:43:06;6.60;99.90
55091;DHT22;40985;53.180;5.800;2023-02-02T12:48:39;6.60;99.90
55091;DHT22;40985;53.180;5.800;2023-02-02T12:59:07;6.80;99.90
55091;DHT22;40985;53.180;5.800;2023-02-02T13:09:57;6.80;99.90
55091;DHT22;40985;53.180;5.800;2023-02-02T13:12:23;7.10;99.90
55091;DHT22;40985;53.180;5.800;2023-02-02T13:14:54;7.00;99.90
55091;DHT22;40985;53.180;5.800;2023-02-02T13:17:32;6.80;99.90
55091;DHT22;40985;53.180;5.800;2023-02-02T13:20:05;7.10;99.90
55091;DHT22;40985;53.180;5.800;2023-02-02T13:22:36;6.80;99.90
55091;DHT22;40985;53.180;5.800;2023-02-02T13:25:07;6.70;99.90
55091;DHT22;40985;53.180;5.800;2023-02-02T13:27:35;7.00;99.90
55091;DHT22;40985;53.180;5.800;2023-02-02T13:30:26;6.80;99.90
55091;DHT22;40985;53.180;5.800;2023-02-02T13:32:57;6.80;99.90
55091;DHT22;40985;53.180;5.800;2023-02-02T13:35:37;6.80;99.90
55091;DHT22;40985;53.180;5.800;2023-02-02T13:38:18;7.00;99.90
55091;DHT22;40985;53.180;5.800;2023-02-02T13:40:45;6.90;99.90
55091;DHT22;40985;53.180;5.800;2023-02-02T13:43:23;6.80;99.90
55091;DHT22;40985;53.180;5.800;2023-02-02T13:46:23;7.10;99.90
55091;DHT22;40985;53.180;5.800;2023-02-02T13:48:58;7.10;99.90
55091;DHT22;40985;53.180;5.800;2023-02-02T14:02:40;7.00;99.90
55091;DHT22;40985;53.180;5.800;2023-02-02T14:05:26;6.70;99.90
55091;DHT22;40985;53.180;5.800;2023-02-02T14:08:16;6.80;99.90
55091;DHT22;40985;53.180;5.800;2023-02-02T14:10:55;6.90;99.90
55091;DHT22;40985;53.180;5.800;2023-02-02T14:19:04;6.70;99.90
55091;DHT22;40985;53.180;5.800;2023-02-02T14:34:39;7.00;99.90
55091;DHT22;40985;53.180;5.800;2023-02-02T14:45:44;7.00;99.90
55091;DHT22;40985;53.180;5.800;2023-02-02T14:48:18;6.90;99.90
55091;DHT22;40985;53.180;5.800;2023-02-02T14:50:51;6.90;99.90
55091;DHT22;40985;53.180;5.800;2023-02-02T14:53:29;7.00;99.90
55091;DHT22;40985;53.180;5.800;2023-02-02T14:58:45;6.80;99.90
55091;DHT22;40985;53.180;5.800;2023-02-02T15:01:12;7.00;99.90
55091;DHT22;40985;53.180;5.800;2023-02-02T15:06:47;6.90;99.90
55091;DHT22;40985;53.180;5.800;2023-02-02T15:19:52;6.80;99.90
55091;DHT22;40985;53.180;5.800;2023-02-02T15:24:58;6.80;99.90
55091;DHT22;40985;53.180;5.800;2023-02-02T15:27:27;7.10;99.90
55091;DHT22;40985;53.180;5.800;2023-02-02T15:30:02;6.80;99.90
55091;DHT22;40985;53.180;5.800;2023-02-02T15:32:29;6.80;99.90
55091;DHT22;40985;53.180;5.800;2023-02-02T15:35:02;6.80;99.90
55091;DHT22;40985;53.180;5.800;2023-02-02T15:37:35;7.10;99.90
55091;DHT22;40985;53.180;5.800;2023-02-02T15:40:14;6.70;99.90
55091;DHT22;40985;53.180;5.800;2023-02-02T15:42:43;7.00;99.90
55091;DHT22;40985;53.180;5.800;2023-02-02T15:47:55;6.90;99.90
55091;DHT22;40985;53.180;5.800;2023-02-02T15:50:22;7.00;99.90
55091;DHT22;40985;53.180;5.800;2023-02-02T15:52:49;6.90;99.90
55091;DHT22;40985;53.180;5.800;2023-02-02T15:57:46;6.90;99.90
55091;DHT22;40985;53.180;5.800;2023-02-02T16:00:33;6.70;99.90
55091;DHT22;40985;53.180;5.800;2023-02-02T16:08:00;6.90;99.90
55091;DHT22;40985;53.180;5.800;2023-02-02T16:10:26;6.80;99.90
55091;DHT22;40985;53.180;5.800;2023-02-02T16:12:52;6.70;99.90
55091;DHT22;40985;53.180;5.800;2023-02-02T16:15:23;6.80;99.90
55091;DHT22;40985;53.180;5.800;2023-02-02T16:18:03;6.90;99.90
55091;DHT22;40985;53.180;5.800;2023-02-02T16:20:31;6.70;99.90
55091;DHT22;40985;53.180;5.800;2023-02-02T16:22:58;6.60;99.90
55091;DHT22;40985;53.180;5.800;2023-02-02T16:25:28;6.90;99.90
55091;DHT22;40985;53.180;5.800;2023-02-02T16:27:55;6.80;99.90
55091;DHT22;40985;53.180;5.800;2023-02-02T16:30:25;6.90;99.90
55091;DHT22;40985;53.180;5.800;2023-02-02T16:32:51;6.70;99.90
55091;DHT22;40985;53.180;5.800;2023-02-02T16:41:05;6.60;99.90
55091;DHT22;40985;53.180;5.800;2023-02-02T16:43:31;6.60;99.90
55091;DHT22;40985;53.180;5.800;2023-02-02T16:46:01;6.80;99.90
55091;DHT22;40985;53.180;5.800;2023-02-02T16:48:58;6.80;99.90
55091;DHT22;40985;53.180;5.800;2023-02-02T16:51:26;6.90;99.90
55091;DHT22;40985;53.180;5.800;2023-02-02T16:56:36;6.80;99.90
55091;DHT22;40985;53.180;5.800;2023-02-02T17:01:53;6.80;99.90
55091;DHT22;40985;53.180;5.800;2023-02-02T17:06:49;6.90;99.90
55091;DHT22;40985;53.180;5.800;2023-02-02T17:14:29;6.80;99.90
55091;DHT22;40985;53.180;5.800;2023-02-02T17:16:55;6.60;99.90
55091;DHT22;40985;53.180;5.800;2023-02-02T17:19:21;6.70;99.90
55091;DHT22;40985;53.180;5.800;2023-02-02T17:21:47;6.50;99.90
55091;DHT22;40985;53.180;5.800;2023-02-02T17:24:15;6.60;99.90
55091;DHT22;40985;53.180;5.800;2023-02-02T17:26:41;6.60;99.90
55091;DHT22;40985;53.180;5.800;2023-02-02T17:29:10;6.60;99.90
55091;DHT22;40985;53.180;5.800;2023-02-02T17:31:36;6.90;99.90
55091;DHT22;40985;53.180;5.800;2023-02-02T17:34:04;6.60;99.90
55091;DHT22;40985;53.180;5.800;2023-02-02T17:36:33;6.70;99.90
55091;DHT22;40985;53.180;5.800;2023-02-02T17:38:59;6.90;99.90
55091;DHT22;40985;53.180;5.800;2023-02-02T17:41:25;6.90;99.90
55091;DHT22;40985;53.180;5.800;2023-02-02T17:43:51;6.70;99.90
55091;DHT22;40985;53.180;5.800;2023-02-02T17:46:16;7.00;99.90
55091;DHT22;40985;53.180;5.800;2023-02-02T17:48:42;6.80;99.90
55091;DHT22;40985;53.180;5.800;2023-02-02T17:51:14;7.00;99.90
55091;DHT22;40985;53.180;5.800;2023-02-02T17:53:40;6.70;99.90
55091;DHT22;40985;53.180;5.800;2023-02-02T17:56:06;7.10;99.90
55091;DHT22;40985;53.180;5.800;2023-02-02T17:58:32;7.00;99.90
55091;DHT22;40985;53.180;5.800;2023-02-02T18:00:58;6.80;99.90
55091;DHT22;40985;53.180;5.800;2023-02-02T18:03:27;7.00;99.90
55091;DHT22;40985;53.180;5.800;2023-02-02T18:05:54;6.90;99.90
55091;DHT22;40985;53.180;5.800;2023-02-02T18:08:22;7.10;99.90
55091;DHT22;40985;53.180;5.800;2023-02-02T18:10:48;6.90;99.90
55091;DHT22;40985;53.180;5.800;2023-02-02T18:13:16;6.90;99.90
55091;DHT22;40985;53.180;5.800;2023-02-02T18:15:44;7.20;99.90
55091;DHT22;40985;53.180;5.800;2023-02-02T18:18:09;7.10;99.90
55091;DHT22;40985;53.180;5.800;2023-02-02T18:20:43;7.10;99.90
55091;DHT22;40985;53.180;5.800;2023-02-02T18:23:09;7.20;99.90
55091;DHT22;40985;53.180;5.800;2023-02-02T18:25:35;7.30;99.90
55091;DHT22;40985;53.180;5.800;2023-02-02T18:28:02;7.20;99.90
55091;DHT22;40985;53.180;5.800;2023-02-02T18:30:28;7.10;99.90
55091;DHT22;40985;53.180;5.800;2023-02-02T18:32:54;7.30;99.90
55091;DHT22;40985;53.180;5.800;2023-02-02T18:35:19;7.30;99.90
55091;DHT22;40985;53.180;5.800;2023-02-02T18:37:45;7.30;99.90
55091;DHT22;40985;53.180;5.800;2023-02-02T18:40:11;7.20;99.90
55091;DHT22;40985;53.180;5.800;2023-02-02T18:42:37;7.30;99.90
55091;DHT22;40985;53.180;5.800;2023-02-02T18:45:04;7.20;99.90
55091;DHT22;40985;53.180;5.800;2023-02-02T18:47:29;7.30;99.90
55091;DHT22;40985;53.180;5.800;2023-02-02T18:49:55;7.20;99.90
55091;DHT22;40985;53.180;5.800;2023-02-02T18:52:21;7.30;99.90
55091;DHT22;40985;53.180;5.800;2023-02-02T18:54:46;7.40;99.90
55091;DHT22;40985;53.180;5.800;2023-02-02T18:57:12;7.50;99.90
55091;DHT22;40985;53.180;5.800;2023-02-02T18:59:39;7.40;99.90
55091;DHT22;40985;53.180;5.800;2023-02-02T19:02:05;7.50;99.90